CYGQ

Geraldton Greenstone Regional Airport

Geraldton, Ontario, Canada
METAR CYGQ 140800Z 26010KT 15SM BKN012 OVC017 M01/M03 A2987 RMK SC5SC3 SLP133
Observed Flight Rules
Dec-14 @ 08:00 UTC (32 minutes ago) Marginal Visual Flight Rules
Wind Visibility Clouds
260° at 10 knots 15 miles
  • Broken at 1,200' AGL
  • Overcast at 1,700' AGL
Temperatures Readings
Current -1°C / 30°F
Dewpoint -3°C / 27°F
Humidity 86%
Altimeter 29.87" Hg
Pressure 1013.3 hPa
Elevation 351
METAR CYGQ 140800Z 26010KT 15SM BKN012 OVC017 M01/M03 A2987 RMK SC5SC3 SLP133
Observed Flight Rules
Dec-14 @ 08:00 UTC
(32 minutes ago)
MVFR
Wind Visibility
260° at 10 knots 15 miles
Clouds
  • Broken at 1,200' AGL
  • Overcast at 1,700' AGL
Temperature Dewpoint
-1°C / 30°F -3°C / 27°F
Humidity Altimeter Pressure
86% 29.87" Hg 1013.3 hPa